Aérodrome :
LOGIN :

S'inscrire | Disclaimer

   EN    FR    IT 

 










Légende :    VFR   VFR Marginal   IFR   IFR Intensif   IFR Très Intensif
Visi : 
Plafond : 
>= 8 km
>= 3000ft
5 à 8 km
1000 à 3000 ft
1500m à 5 km
500 à 1000 ft
800 à 1500m
200 à 500 ft
< 800m
< 200 ft
Symboles :   Orages  Brouillard  Fortes neiges  Fortes précipitations  Vent > 20 kt
SIGMETs :   Divers  Orages  Givrage  Turbulence  Onde Orograph.  Cendres Volcan.







- Altitude de l'aérodrome : 102 ft
- Code IATA : KEL


EDHK - Holtenau

DERNIER METAR :
  • 221550Z /////KT CAVOK 12/05 Q1016

METARs EXPIRÉS :
  • 221520Z /////KT CAVOK 13/06 Q1016
  • 221450Z /////KT CAVOK 14/05 Q1016
  • 221420Z /////KT CAVOK 15/06 Q1016
  • 221350Z /////KT CAVOK 16/06 Q1016
  • 221320Z /////KT CAVOK 15/05 Q1016
  • 221250Z /////KT CAVOK 14/05 Q1017

TAF TAF EDHK
Valide du 22 à 15h jusqu'au 22 à 18h UTC


221400Z 2215/2218 08015G25KT CAVOK
BECMG 2216/2218 08011KT
Pas de NOTAMs connus pour ce terrain.



MET'MAP, la Météo Aéronautique d'un coup d'oeil ! - Copyright ORBIFLY Décembre 2007 - Disclaimer

ORBIFLY MET'MAP TEAM :

Programmation & Développement : Alexandra Zaïnal
Conception & Développement : Baudouin d'Aumeries
Co-Programmation & Développement : Marc-Olivier Méhu
Soutien technique & logistique : Manuel Goepfert

Contact : metmap@orbifly.com




SOURCES & CREDITS :

   NOAA